Time;durP1;ratioP1;P1;durP2;ratioP2;P2;SDS_P1;SDS_P2;PMS_P1;PMS_P2;Temp;Humidity;BMP_temperature;BMP_pressure;BME280_temperature;BME280_humidity;BME280_pressure;Samples;Min_cycle;Max_cycle;Signal;HPM_P1;HPM_P2
2022/06/09 00:01:23;;;;;;;12.20;4.82;;;15.00;99.90;;;;;;5023319;28;20037;-68
2022/06/09 00:04:09;;;;;;;15.20;5.25;;;15.00;99.90;;;;;;5029552;28;20055;-68
2022/06/09 00:06:46;;;;;;;13.50;5.15;;;15.10;99.90;;;;;;5027711;28;20399;-68
2022/06/09 00:09:14;;;;;;;10.70;4.50;;;15.00;99.90;;;;;;5027298;28;20081;-68
2022/06/09 00:11:45;;;;;;;12.20;5.00;;;15.00;99.90;;;;;;5044483;28;20041;-68
2022/06/09 00:14:11;;;;;;;12.57;5.40;;;15.00;99.90;;;;;;5015566;28;20053;-68
2022/06/09 00:16:37;;;;;;;12.95;5.97;;;14.90;99.90;;;;;;5030559;28;20080;-68
2022/06/09 00:19:05;;;;;;;11.68;4.95;;;14.90;99.90;;;;;;5038055;28;20036;-68
2022/06/09 00:21:32;;;;;;;14.38;5.53;;;15.00;99.90;;;;;;5040422;28;20076;-68
2022/06/09 00:23:57;;;;;;;15.52;5.60;;;14.90;99.90;;;;;;5040235;28;20043;-68
2022/06/09 00:26:23;;;;;;;12.23;5.45;;;14.90;99.90;;;;;;5045724;28;20056;-68
2022/06/09 00:28:48;;;;;;;11.20;5.20;;;14.90;99.90;;;;;;5044277;28;20056;-68
2022/06/09 00:31:14;;;;;;;16.13;5.25;;;14.90;99.90;;;;;;5027199;28;20037;-68
2022/06/09 00:33:40;;;;;;;11.60;5.97;;;14.90;99.90;;;;;;5039249;28;20406;-68
2022/06/09 00:36:05;;;;;;;20.37;6.40;;;14.80;99.90;;;;;;5046480;28;20303;-68
2022/06/09 00:38:31;;;;;;;12.93;6.10;;;14.80;99.90;;;;;;5029295;28;20422;-68
2022/06/09 00:40:59;;;;;;;15.20;6.30;;;14.90;99.90;;;;;;5045443;28;20474;-68
2022/06/09 00:43:28;;;;;;;14.30;5.22;;;14.80;99.90;;;;;;5023739;28;20384;-68
2022/06/09 00:46:15;;;;;;;15.90;6.65;;;14.80;99.90;;;;;;5041186;28;20041;-68
2022/06/09 00:48:46;;;;;;;14.93;6.25;;;14.80;99.90;;;;;;5032284;28;20117;-68
2022/06/09 00:51:38;;;;;;;11.60;6.18;;;14.80;99.90;;;;;;5016183;28;20454;-68
2022/06/09 00:54:28;;;;;;;11.20;5.53;;;14.80;99.90;;;;;;5013958;28;20103;-68
2022/06/09 00:57:17;;;;;;;12.30;5.90;;;14.70;99.90;;;;;;5021803;28;20068;-68
2022/06/09 00:59:46;;;;;;;12.73;5.18;;;14.70;99.90;;;;;;5044650;28;20041;-68
2022/06/09 01:02:16;;;;;;;13.57;5.03;;;14.70;99.90;;;;;;5018164;28;20528;-68
2022/06/09 01:04:43;;;;;;;11.85;5.50;;;14.70;99.90;;;;;;5045062;28;20057;-68
2022/06/09 01:07:13;;;;;;;10.73;4.88;;;14.70;99.90;;;;;;5042974;28;20406;-68
2022/06/09 01:09:39;;;;;;;12.55;5.53;;;14.70;99.90;;;;;;5024927;28;20029;-68
2022/06/09 01:12:23;;;;;;;10.65;4.47;;;14.70;99.90;;;;;;5044144;28;20136;-68
2022/06/09 01:14:49;;;;;;;10.52;4.65;;;14.60;99.90;;;;;;5040200;28;20044;-68
2022/06/09 01:17:18;;;;;;;9.63;3.72;;;14.60;99.90;;;;;;5025910;28;20060;-68
2022/06/09 01:20:05;;;;;;;11.70;4.20;;;14.60;99.90;;;;;;5044215;28;20048;-68
2022/06/09 01:22:52;;;;;;;11.57;4.18;;;14.60;99.90;;;;;;5025859;28;20036;-68
2022/06/09 01:25:42;;;;;;;11.70;4.47;;;14.50;99.90;;;;;;5042278;28;20040;-68
2022/06/09 01:28:36;;;;;;;12.48;4.43;;;14.50;99.90;;;;;;5026924;28;20481;-68
2022/06/09 01:31:28;;;;;;;11.13;4.90;;;14.50;99.90;;;;;;5040383;28;20132;-68
2022/06/09 01:34:26;;;;;;;14.27;4.45;;;14.50;99.90;;;;;;5046670;28;20037;-68
2022/06/09 01:37:16;;;;;;;8.85;4.57;;;14.40;99.90;;;;;;5028471;28;20040;-68
2022/06/09 01:39:42;;;;;;;13.98;4.82;;;14.40;99.90;;;;;;5041356;28;20115;-68
2022/06/09 01:42:38;;;;;;;12.57;4.43;;;14.40;99.90;;;;;;5039648;28;20334;-68
2022/06/09 01:45:23;;;;;;;9.00;4.28;;;14.40;99.90;;;;;;5032582;28;20156;-68
2022/06/09 01:47:52;;;;;;;12.80;5.15;;;14.30;99.90;;;;;;5025543;28;20110;-68
2022/06/09 01:50:52;;;;;;;12.73;4.63;;;14.30;99.90;;;;;;5042105;28;20512;-68
2022/06/09 01:53:33;;;;;;;10.55;4.60;;;14.20;99.90;;;;;;5041140;28;20041;-68
2022/06/09 01:56:15;;;;;;;8.95;4.28;;;14.20;99.90;;;;;;5040431;28;20052;-68
2022/06/09 01:58:45;;;;;;;12.70;4.50;;;14.20;99.90;;;;;;5028299;28;20399;-68
2022/06/09 02:01:13;;;;;;;16.27;4.60;;;14.20;99.90;;;;;;5024879;28;20041;-68
2022/06/09 02:03:43;;;;;;;10.82;4.55;;;14.10;99.90;;;;;;5028320;28;20032;-68
2022/06/09 02:06:10;;;;;;;8.10;3.65;;;14.10;99.90;;;;;;5045183;28;20128;-68
2022/06/09 02:08:39;;;;;;;14.43;4.65;;;14.10;99.90;;;;;;5031196;28;20051;-68
2022/06/09 02:11:08;;;;;;;8.43;4.32;;;14.10;99.90;;;;;;5040719;28;20048;-68
2022/06/09 02:13:39;;;;;;;7.00;3.70;;;14.10;99.90;;;;;;5045429;28;20032;-68
2022/06/09 02:16:07;;;;;;;16.58;4.82;;;14.00;99.90;;;;;;5042079;28;20037;-67
2022/06/09 02:18:39;;;;;;;14.30;5.28;;;14.00;99.90;;;;;;5036722;28;20347;-68
2022/06/09 02:21:18;;;;;;;12.52;4.78;;;14.00;99.90;;;;;;5030229;28;20041;-68
2022/06/09 02:23:45;;;;;;;11.50;4.22;;;14.00;99.90;;;;;;5029178;28;20034;-68
2022/06/09 02:26:10;;;;;;;10.95;4.57;;;13.90;99.90;;;;;;5006958;28;20175;-68
2022/06/09 02:28:36;;;;;;;11.18;4.53;;;13.90;99.90;;;;;;5027787;28;20505;-68
2022/06/09 02:31:03;;;;;;;7.47;3.80;;;13.90;99.90;;;;;;5023660;28;20105;-68
2022/06/09 02:33:28;;;;;;;;;;;13.90;99.90;;;;;;5038004;28;20405;-68
2022/06/09 02:35:54;;;;;;;12.10;4.28;;;13.90;99.90;;;;;;5038681;28;20409;-68
2022/06/09 02:38:21;;;;;;;7.18;3.85;;;13.90;99.90;;;;;;5041570;28;20037;-68
2022/06/09 02:40:47;;;;;;;7.82;4.85;;;13.90;99.90;;;;;;5045153;28;20068;-68
2022/06/09 02:43:13;;;;;;;10.05;5.22;;;13.90;99.90;;;;;;5038328;28;20056;-68
2022/06/09 02:45:39;;;;;;;18.83;4.72;;;13.90;99.90;;;;;;5020987;28;20083;-68
2022/06/09 02:48:05;;;;;;;11.23;4.68;;;13.90;99.90;;;;;;5008461;28;20037;-68
2022/06/09 02:50:33;;;;;;;12.90;5.13;;;13.90;99.90;;;;;;5026827;28;20118;-68
2022/06/09 02:52:59;;;;;;;6.53;4.00;;;13.90;99.90;;;;;;5041311;28;20055;-68
2022/06/09 02:55:25;;;;;;;9.82;4.68;;;13.90;99.90;;;;;;5021450;28;20533;-68
2022/06/09 02:57:53;;;;;;;8.30;3.85;;;13.90;99.90;;;;;;5043547;28;20033;-68
2022/06/09 03:00:20;;;;;;;13.15;4.60;;;13.90;99.90;;;;;;5014633;28;20075;-68
2022/06/09 03:02:58;;;;;;;7.85;4.30;;;13.90;99.90;;;;;;5035314;28;20061;-68
2022/06/09 03:05:25;;;;;;;9.38;4.93;;;13.90;99.90;;;;;;5047195;28;20041;-68
2022/06/09 03:07:51;;;;;;;12.18;5.32;;;13.90;99.90;;;;;;5026898;28;20493;-68
2022/06/09 03:10:17;;;;;;;6.75;4.20;;;13.90;99.90;;;;;;5037756;28;20065;-68
2022/06/09 03:12:42;;;;;;;8.52;4.85;;;13.90;99.90;;;;;;5037840;28;20037;-68
2022/06/09 03:15:14;;;;;;;9.27;5.15;;;14.00;99.90;;;;;;5041285;28;20644;-69
2022/06/09 03:17:39;;;;;;;7.32;4.43;;;13.90;99.90;;;;;;5038499;28;20506;-69
2022/06/09 03:20:08;;;;;;;12.37;4.77;;;13.90;99.90;;;;;;5046365;28;20036;-68
2022/06/09 03:22:34;;;;;;;10.98;4.43;;;13.90;99.90;;;;;;5036832;28;20773;-69
2022/06/09 03:25:00;;;;;;;8.02;4.45;;;13.90;99.90;;;;;;5050085;28;20115;-68
2022/06/09 03:27:26;;;;;;;9.13;4.82;;;13.90;99.90;;;;;;5038102;28;20040;-68
2022/06/09 03:29:52;;;;;;;8.25;4.45;;;13.90;99.90;;;;;;5027714;28;20099;-69
2022/06/09 03:32:18;;;;;;;8.67;3.77;;;13.90;99.90;;;;;;5042855;28;20048;-68
2022/06/09 03:34:43;;;;;;;12.05;4.45;;;13.90;99.90;;;;;;5043107;28;20299;-68
2022/06/09 03:37:09;;;;;;;9.53;4.37;;;13.90;99.90;;;;;;5040439;28;20186;-69
2022/06/09 03:39:34;;;;;;;8.32;4.72;;;13.90;99.90;;;;;;5041406;28;20469;-68
2022/06/09 03:42:00;;;;;;;6.95;4.63;;;13.90;99.90;;;;;;5044426;28;20091;-68
2022/06/09 03:44:26;;;;;;;7.57;4.22;;;13.90;99.90;;;;;;5047688;28;20079;-68
2022/06/09 03:46:51;;;;;;;8.40;4.47;;;13.90;99.90;;;;;;5044982;28;20129;-68
2022/06/09 03:49:17;;;;;;;7.60;4.83;;;13.90;99.90;;;;;;5029320;28;20163;-68
2022/06/09 03:51:43;;;;;;;6.43;4.38;;;14.00;99.90;;;;;;5044739;28;20368;-69
2022/06/09 03:54:08;;;;;;;12.90;6.73;;;14.00;99.90;;;;;;5115511;22;20037;-72
2022/06/09 03:56:34;;;;;;;12.45;6.95;;;14.00;99.90;;;;;;5060594;28;20048;-72
2022/06/09 03:59:00;;;;;;;12.60;7.65;;;14.00;99.90;;;;;;5029384;28;20048;-72
2022/06/09 04:01:26;;;;;;;12.63;7.53;;;14.00;99.90;;;;;;5027565;28;20275;-72
2022/06/09 04:03:52;;;;;;;14.17;8.67;;;13.90;99.90;;;;;;5045552;28;20276;-72
2022/06/09 04:06:23;;;;;;;13.88;7.50;;;13.90;99.90;;;;;;5038667;28;20295;-72
2022/06/09 04:08:50;;;;;;;15.43;8.15;;;13.90;99.90;;;;;;5043232;28;20102;-72
2022/06/09 04:11:18;;;;;;;14.05;8.10;;;13.90;99.90;;;;;;5039963;28;20033;-72
2022/06/09 04:13:43;;;;;;;19.20;9.35;;;13.90;99.90;;;;;;5028329;28;20374;-72
2022/06/09 04:16:31;;;;;;;17.38;9.40;;;13.90;99.90;;;;;;5044502;28;20237;-72
2022/06/09 04:19:01;;;;;;;;;;;13.90;99.90;;;;;;5025956;28;20150;-72
2022/06/09 04:21:29;;;;;;;21.30;10.55;;;13.90;99.90;;;;;;5019558;28;20006;-72
2022/06/09 04:23:56;;;;;;;18.17;9.88;;;13.80;99.90;;;;;;4999600;28;20049;-72
2022/06/09 04:26:25;;;;;;;17.67;9.38;;;13.90;99.90;;;;;;5029657;28;20143;-72
2022/06/09 04:28:51;;;;;;;17.95;10.05;;;13.90;99.90;;;;;;5013180;28;20425;-72
2022/06/09 04:31:17;;;;;;;16.83;9.63;;;13.90;99.90;;;;;;5038136;28;20124;-72
2022/06/09 04:33:43;;;;;;;18.80;9.93;;;13.90;99.90;;;;;;5043677;28;20040;-72
2022/06/09 04:36:11;;;;;;;19.20;10.05;;;13.90;99.90;;;;;;5044852;28;20064;-72
2022/06/09 04:38:37;;;;;;;17.40;8.80;;;13.90;99.90;;;;;;5029178;28;20045;-72
2022/06/09 04:41:09;;;;;;;18.15;8.65;;;13.90;99.90;;;;;;5037532;28;20784;-72
2022/06/09 04:43:38;;;;;;;17.05;8.88;;;14.00;99.90;;;;;;5030098;28;20128;-72
2022/06/09 04:46:05;;;;;;;17.45;8.23;;;13.90;99.90;;;;;;5040777;28;20271;-72
2022/06/09 04:48:32;;;;;;;15.70;9.23;;;14.00;99.90;;;;;;5015727;28;20087;-73
2022/06/09 04:50:58;;;;;;;20.13;10.35;;;14.00;99.90;;;;;;5033468;28;20053;-72
2022/06/09 04:53:24;;;;;;;18.63;9.93;;;14.00;99.90;;;;;;5022974;28;20095;-72
2022/06/09 04:55:49;;;;;;;16.75;9.70;;;14.00;99.90;;;;;;5041297;28;20616;-72
2022/06/09 04:58:16;;;;;;;18.58;10.32;;;13.90;99.90;;;;;;5029606;28;20045;-72
2022/06/09 05:00:42;;;;;;;18.95;10.85;;;14.00;99.90;;;;;;5025829;28;20071;-72
2022/06/09 05:03:11;;;;;;;20.00;10.80;;;14.00;99.90;;;;;;5032240;28;20458;-72
2022/06/09 05:05:39;;;;;;;17.67;9.98;;;14.00;99.90;;;;;;5038638;28;20350;-72
2022/06/09 05:08:05;;;;;;;23.70;10.48;;;14.00;99.90;;;;;;5040619;28;20570;-72
2022/06/09 05:10:32;;;;;;;16.77;10.60;;;14.00;99.90;;;;;;5031921;28;20040;-73
2022/06/09 05:12:58;;;;;;;21.73;11.48;;;14.00;99.90;;;;;;5027163;28;20045;-72
2022/06/09 05:15:24;;;;;;;;;;;14.10;99.90;;;;;;5027453;28;20044;-73
2022/06/09 05:17:51;;;;;;;18.50;10.05;;;14.10;99.90;;;;;;5028395;28;20353;-73
2022/06/09 05:20:19;;;;;;;16.10;9.30;;;14.10;99.90;;;;;;5043809;28;20037;-72
2022/06/09 05:22:45;;;;;;;20.20;10.40;;;14.10;99.90;;;;;;5038290;28;20037;-73
2022/06/09 05:25:12;;;;;;;17.02;9.52;;;14.20;99.90;;;;;;5039346;28;20106;-72
2022/06/09 05:27:38;;;;;;;;;;;14.20;99.90;;;;;;5023760;28;20098;-73
2022/06/09 05:30:06;;;;;;;14.10;8.18;;;14.20;99.90;;;;;;5045179;28;19960;-72
2022/06/09 05:32:31;;;;;;;14.93;9.45;;;14.20;99.90;;;;;;5025812;28;20049;-73
2022/06/09 05:34:57;;;;;;;14.32;8.45;;;14.20;99.90;;;;;;5035452;28;20037;-73
2022/06/09 05:37:22;;;;;;;18.20;8.90;;;14.20;99.90;;;;;;5023344;28;20489;-77
2022/06/09 05:45:17;;;;;;;12.68;7.70;;;14.30;99.90;;;;;;5020428;28;20126;-72
2022/06/09 05:47:43;;;;;;;14.40;7.93;;;14.30;99.90;;;;;;5040082;28;20072;-72
2022/06/09 05:50:10;;;;;;;14.73;8.38;;;14.30;99.90;;;;;;5008529;28;20068;-72
2022/06/09 05:52:35;;;;;;;11.30;7.35;;;14.30;99.90;;;;;;5035512;28;20120;-72
2022/06/09 05:55:02;;;;;;;13.13;7.72;;;14.40;99.90;;;;;;4995068;28;20047;-72
2022/06/09 05:57:28;;;;;;;13.07;7.60;;;14.40;99.90;;;;;;5040147;28;20028;-72
2022/06/09 05:59:55;;;;;;;10.60;7.47;;;14.40;99.90;;;;;;5025594;28;20468;-72
2022/06/09 06:02:24;;;;;;;10.88;6.85;;;14.40;99.90;;;;;;5005766;28;20040;-72
2022/06/09 06:04:51;;;;;;;11.00;7.70;;;14.40;99.90;;;;;;5039806;28;20037;-72
2022/06/09 06:07:16;;;;;;;11.85;7.25;;;14.50;99.90;;;;;;5028055;28;20041;-77
2022/06/09 06:09:42;;;;;;;11.98;7.57;;;14.50;99.90;;;;;;5040479;28;20047;-72
2022/06/09 06:12:09;;;;;;;11.07;6.87;;;14.50;99.90;;;;;;5021694;28;20248;-72
2022/06/09 06:14:35;;;;;;;11.70;7.22;;;14.60;99.90;;;;;;5043764;28;20303;-72
2022/06/09 06:17:01;;;;;;;9.15;6.32;;;14.50;99.90;;;;;;5035538;28;20045;-73
2022/06/09 06:19:26;;;;;;;13.55;6.40;;;14.60;99.90;;;;;;5021651;28;20044;-72
2022/06/09 06:21:53;;;;;;;12.67;6.40;;;14.60;99.90;;;;;;5039279;28;20059;-72
2022/06/09 06:24:24;;;;;;;11.77;6.72;;;14.60;99.90;;;;;;5019905;28;20440;-72
2022/06/09 06:26:50;;;;;;;10.80;6.97;;;14.60;99.90;;;;;;5025740;28;20589;-72
2022/06/09 06:29:22;;;;;;;9.93;6.57;;;14.70;99.90;;;;;;5021927;28;20128;-72
2022/06/09 06:31:48;;;;;;;11.13;6.60;;;14.70;99.90;;;;;;5037569;28;20064;-72
2022/06/09 06:34:17;;;;;;;10.73;6.60;;;14.80;99.90;;;;;;5026736;28;20044;-72
2022/06/09 06:36:42;;;;;;;9.50;6.47;;;14.80;99.90;;;;;;5041363;28;20032;-72
2022/06/09 06:39:09;;;;;;;10.90;6.60;;;14.90;99.90;;;;;;5018744;28;20040;-72
2022/06/09 06:41:34;;;;;;;8.15;4.70;;;14.90;99.90;;;;;;5039759;28;20043;-72
2022/06/09 06:44:00;;;;;;;9.10;4.75;;;15.00;99.90;;;;;;5039139;28;20123;-72
2022/06/09 06:46:27;;;;;;;5.93;3.85;;;15.00;99.90;;;;;;5031046;28;20389;-72
2022/06/09 06:48:53;;;;;;;6.63;3.88;;;15.00;99.90;;;;;;5009759;28;20056;-72
2022/06/09 06:51:21;;;;;;;7.68;3.45;;;15.10;99.90;;;;;;5019232;28;20071;-72
2022/06/09 06:53:47;;;;;;;4.72;2.92;;;15.10;99.90;;;;;;5020699;28;20036;-72
2022/06/09 06:56:12;;;;;;;6.28;4.05;;;15.30;99.90;;;;;;5038025;28;20132;-72
2022/06/09 06:58:38;;;;;;;7.03;4.30;;;15.20;99.90;;;;;;5042281;28;20033;-72
2022/06/09 07:01:04;;;;;;;6.18;3.95;;;15.30;99.90;;;;;;5036679;28;20045;-72
2022/06/09 07:03:30;;;;;;;4.95;3.33;;;15.40;99.90;;;;;;5040748;28;20029;-72
2022/06/09 07:05:56;;;;;;;5.35;3.40;;;15.40;99.90;;;;;;5021653;28;20063;-72
2022/06/09 07:08:24;;;;;;;;;;;15.40;99.90;;;;;;5025977;28;20060;-72
2022/06/09 07:10:51;;;;;;;4.80;3.13;;;15.40;99.90;;;;;;5031497;28;20353;-72
2022/06/09 07:13:17;;;;;;;4.70;3.00;;;15.40;99.90;;;;;;5026106;28;20454;-72
2022/06/09 07:15:43;;;;;;;5.45;2.85;;;15.50;99.90;;;;;;5046514;28;20119;-72
2022/06/09 07:18:09;;;;;;;8.10;2.50;;;15.60;99.90;;;;;;5043837;28;20343;-72
2022/06/09 07:20:35;;;;;;;8.60;3.00;;;15.60;99.90;;;;;;5031087;28;20037;-72
2022/06/09 07:23:01;;;;;;;6.53;2.10;;;15.70;99.90;;;;;;5035567;28;20044;-72
2022/06/09 07:25:27;;;;;;;4.07;2.50;;;15.70;99.90;;;;;;5021718;28;20053;-72
2022/06/09 07:27:54;;;;;;;3.58;1.60;;;15.80;99.90;;;;;;5042839;28;20466;-72
2022/06/09 07:30:22;;;;;;;3.85;1.20;;;15.80;99.90;;;;;;5043953;28;20104;-72
2022/06/09 07:32:48;;;;;;;3.65;2.08;;;15.80;99.90;;;;;;5022303;28;24426;-72
2022/06/09 07:35:18;;;;;;;6.25;1.35;;;15.90;99.90;;;;;;5047047;28;20092;-72
2022/06/09 07:37:45;;;;;;;3.92;1.48;;;15.90;99.90;;;;;;5031072;28;20041;-72
2022/06/09 07:40:11;;;;;;;;;;;16.00;99.90;;;;;;5043448;28;20029;-72
2022/06/09 07:42:37;;;;;;;2.75;0.80;;;16.00;99.90;;;;;;5025135;28;20008;-72
2022/06/09 07:45:05;;;;;;;3.15;1.10;;;16.10;99.90;;;;;;5043452;28;20059;-72
2022/06/09 07:47:30;;;;;;;2.83;1.17;;;16.00;99.90;;;;;;5043141;28;20057;-72
2022/06/09 07:49:57;;;;;;;7.60;1.55;;;16.10;99.90;;;;;;5027395;28;20087;-71
2022/06/09 07:52:23;;;;;;;;;;;16.10;99.90;;;;;;5018903;28;20041;-71
2022/06/09 07:54:48;;;;;;;2.80;1.15;;;16.20;99.90;;;;;;5044676;28;19937;-71
2022/06/09 07:57:14;;;;;;;5.43;1.40;;;16.30;99.90;;;;;;5044587;28;20278;-71
2022/06/09 07:59:40;;;;;;;7.13;1.13;;;16.40;99.90;;;;;;5051318;28;20064;-71
2022/06/09 08:02:05;;;;;;;2.50;0.77;;;16.40;99.90;;;;;;5028099;28;20041;-71
2022/06/09 08:04:31;;;;;;;5.90;1.13;;;16.50;99.90;;;;;;5046432;28;20162;-71
2022/06/09 08:06:57;;;;;;;4.43;1.30;;;16.50;99.90;;;;;;5045874;28;20121;-71
2022/06/09 08:09:23;;;;;;;3.60;1.15;;;16.60;99.90;;;;;;5029734;28;20583;-71
2022/06/09 08:11:49;;;;;;;5.25;1.63;;;16.60;99.90;;;;;;5047838;28;20132;-71
2022/06/09 08:14:15;;;;;;;2.17;1.10;;;16.70;99.90;;;;;;5027074;28;20045;-71
2022/06/09 08:16:41;;;;;;;2.70;1.10;;;16.80;99.90;;;;;;5041237;28;20037;-71
2022/06/09 08:19:07;;;;;;;2.97;1.20;;;16.80;99.90;;;;;;5019148;28;20052;-71
2022/06/09 08:21:32;;;;;;;2.78;1.48;;;16.80;99.90;;;;;;5028996;28;20041;-71
2022/06/09 08:23:58;;;;;;;5.80;0.90;;;16.90;99.90;;;;;;5036593;28;20481;-71
2022/06/09 08:26:24;;;;;;;5.47;2.05;;;16.80;99.90;;;;;;5024767;28;20044;-71
2022/06/09 08:28:50;;;;;;;4.72;1.40;;;16.80;99.90;;;;;;5047156;28;20036;-72
2022/06/09 08:31:16;;;;;;;2.00;1.27;;;16.90;99.90;;;;;;5020774;28;20059;-71
2022/06/09 08:33:42;;;;;;;4.40;1.65;;;17.00;99.90;;;;;;5021063;28;20489;-72
2022/06/09 08:36:09;;;;;;;3.90;1.27;;;16.90;99.90;;;;;;5034221;28;20045;-72
2022/06/09 08:38:34;;;;;;;1.88;1.00;;;17.00;99.90;;;;;;5045514;28;20033;-72
2022/06/09 08:41:00;;;;;;;2.22;1.17;;;17.10;99.90;;;;;;5036147;28;20056;-72
2022/06/09 08:43:37;;;;;;;4.88;1.30;;;17.10;99.90;;;;;;5037117;28;20041;-72
2022/06/09 08:46:26;;;;;;;4.30;1.23;;;17.10;99.90;;;;;;5044971;28;20041;-71
2022/06/09 08:48:55;;;;;;;4.97;1.40;;;17.10;99.90;;;;;;5029639;28;20040;-71
2022/06/09 08:51:39;;;;;;;5.35;1.25;;;17.10;99.90;;;;;;5016778;28;20053;-71
2022/06/09 08:54:20;;;;;;;4.47;1.10;;;17.10;99.90;;;;;;5037181;28;20513;-71
2022/06/09 08:56:47;;;;;;;5.90;1.17;;;17.10;99.90;;;;;;5043271;28;20517;-71
2022/06/09 08:59:17;;;;;;;2.08;1.08;;;17.20;99.90;;;;;;5041943;28;20120;-71
2022/06/09 09:01:51;;;;;;;3.85;1.23;;;17.30;99.90;;;;;;5037215;28;20159;-71
2022/06/09 09:04:27;;;;;;;7.13;1.42;;;17.50;99.90;;;;;;5043520;28;20116;-71
2022/06/09 09:07:25;;;;;;;5.13;1.48;;;17.60;99.90;;;;;;5037633;28;20116;-71
2022/06/09 09:10:27;;;;;;;2.88;0.90;;;17.70;99.90;;;;;;5022846;28;20079;-71
2022/06/09 09:13:20;;;;;;;3.08;0.93;;;17.90;99.90;;;;;;4939779;28;20035;-72
2022/06/09 09:15:58;;;;;;;5.13;0.77;;;18.00;99.90;;;;;;5041887;28;20079;-71
2022/06/09 09:18:28;;;;;;;3.70;0.90;;;18.10;99.90;;;;;;5030397;28;20037;-71
2022/06/09 09:21:12;;;;;;;4.47;1.15;;;18.00;99.90;;;;;;5013402;28;20094;-71
2022/06/09 09:24:08;;;;;;;3.08;0.80;;;18.00;99.90;;;;;;5013223;28;20525;-71
2022/06/09 09:26:49;;;;;;;4.90;1.08;;;18.00;99.90;;;;;;5038020;28;20092;-71
2022/06/09 09:29:46;;;;;;;6.25;1.23;;;18.00;99.90;;;;;;5023774;28;20063;-71
2022/06/09 09:32:18;;;;;;;4.55;0.82;;;18.10;99.90;;;;;;5019569;28;20242;-72
2022/06/09 09:34:47;;;;;;;2.33;1.05;;;18.10;99.90;;;;;;5019337;28;20099;-71
2022/06/09 09:37:25;;;;;;;4.05;0.95;;;18.20;99.90;;;;;;5041680;28;20477;-71
2022/06/09 09:39:54;;;;;;;4.63;1.05;;;18.20;99.90;;;;;;5022622;28;20045;-71
2022/06/09 09:42:25;;;;;;;7.85;0.80;;;18.30;99.90;;;;;;5041717;28;20110;-71
2022/06/09 09:45:12;;;;;;;3.67;1.23;;;18.20;99.90;;;;;;5032898;28;20071;-71
2022/06/09 09:47:50;;;;;;;;;;;18.20;99.90;;;;;;5036202;28;20154;-71
2022/06/09 09:50:22;;;;;;;;;;;18.00;99.90;;;;;;5025632;28;19939;-72
2022/06/09 09:52:58;;;;;;;3.38;1.05;;;18.00;99.90;;;;;;5018553;28;19917;-71
2022/06/09 09:55:34;;;;;;;4.82;1.05;;;18.00;99.90;;;;;;5121223;22;20108;-67
2022/06/09 09:58:18;;;;;;;2.15;1.00;;;18.00;99.90;;;;;;5028449;28;20094;-67
2022/06/09 10:00:47;;;;;;;6.10;1.45;;;18.00;99.90;;;;;;5031415;28;20040;-67
2022/06/09 10:09:29;;;;;;;2.25;0.75;;;18.10;99.90;;;;;;5027207;28;20052;-67
2022/06/09 10:12:17;;;;;;;3.15;0.80;;;18.00;99.90;;;;;;5026950;28;20136;-67
2022/06/09 10:14:53;;;;;;;5.32;1.25;;;17.90;99.90;;;;;;5038405;28;20044;-67
2022/06/09 10:17:49;;;;;;;2.03;1.15;;;17.90;99.90;;;;;;5038287;28;20473;-67
2022/06/09 10:20:31;;;;;;;2.80;1.05;;;18.00;99.90;;;;;;4984819;28;20052;-67
2022/06/09 10:23:24;;;;;;;3.33;1.27;;;18.20;99.90;;;;;;4997211;28;20041;-67
2022/06/09 10:26:01;;;;;;;2.45;0.80;;;18.30;99.90;;;;;;5043962;28;20578;-67
2022/06/09 10:28:43;;;;;;;5.90;1.08;;;18.20;99.90;;;;;;5045358;28;20045;-67
2022/06/09 10:31:32;;;;;;;3.70;0.77;;;18.20;99.90;;;;;;5031422;28;20442;-67
2022/06/09 10:34:19;;;;;;;6.68;0.85;;;18.30;99.90;;;;;;5040637;28;20091;-67
2022/06/09 10:36:51;;;;;;;4.57;0.80;;;18.40;99.90;;;;;;5045375;28;20073;-67
2022/06/09 10:39:25;;;;;;;5.00;0.98;;;18.40;99.90;;;;;;5028780;28;20401;-67
2022/06/09 10:42:01;;;;;;;2.72;1.05;;;18.50;99.90;;;;;;5034807;28;20093;-67
2022/06/09 10:44:44;;;;;;;3.00;0.80;;;18.60;99.90;;;;;;5022817;28;20056;-67
2022/06/09 10:56:57;;;;;;;2.65;0.60;;;18.10;99.90;;;;;;5028733;28;20139;-67
2022/06/09 10:59:37;;;;;;;6.07;0.90;;;18.30;99.90;;;;;;5019208;28;20448;-67
2022/06/09 11:02:11;;;;;;;2.05;0.90;;;18.50;99.90;;;;;;5023696;28;20095;-67
2022/06/09 11:04:37;;;;;;;4.85;0.95;;;18.70;99.90;;;;;;5041811;28;20114;-67
2022/06/09 11:07:37;;;;;;;1.75;0.50;;;18.80;99.90;;;;;;5025396;28;20126;-67
2022/06/09 11:10:31;;;;;;;5.25;1.17;;;18.70;99.90;;;;;;5024889;28;20055;-67
2022/06/09 11:13:15;;;;;;;2.53;1.10;;;18.50;99.90;;;;;;5047208;28;20136;-67
2022/06/09 11:15:52;;;;;;;3.33;1.00;;;18.40;99.90;;;;;;5026951;28;21479;-67
2022/06/09 11:18:30;;;;;;;2.92;0.65;;;18.30;99.90;;;;;;5039034;28;20037;-67
2022/06/09 11:21:03;;;;;;;4.30;0.80;;;18.30;99.90;;;;;;5022732;28;20056;-67
2022/06/09 11:23:36;;;;;;;7.45;1.70;;;18.50;99.90;;;;;;5025668;28;20483;-67
2022/06/09 11:26:11;;;;;;;6.35;0.90;;;18.60;99.90;;;;;;5021841;28;20514;-67
2022/06/09 11:29:24;;;;;;;3.45;0.82;;;18.60;99.90;;;;;;5033715;28;20846;-67
2022/06/09 11:31:52;;;;;;;5.75;0.88;;;18.50;99.90;;;;;;5016154;28;20519;-67
2022/06/09 11:34:40;;;;;;;5.57;1.15;;;18.50;99.90;;;;;;5028923;28;20178;-67
2022/06/09 11:37:18;;;;;;;6.20;1.73;;;18.60;99.90;;;;;;5042681;28;20118;-67
2022/06/09 11:40:09;;;;;;;2.65;1.20;;;18.60;99.90;;;;;;5023591;28;20102;-67
2022/06/09 11:42:35;;;;;;;2.15;0.93;;;18.60;99.90;;;;;;5043569;28;20051;-67
2022/06/09 11:45:10;;;;;;;;;;;18.50;99.90;;;;;;5043628;28;20056;-67
2022/06/09 11:47:36;;;;;;;6.50;0.90;;;18.40;99.90;;;;;;5039612;28;19951;-67
2022/06/09 11:50:07;;;;;;;3.85;0.60;;;18.20;99.90;;;;;;5012649;28;20604;-67
2022/06/09 11:52:41;;;;;;;3.42;0.98;;;18.20;99.90;;;;;;5020392;28;20045;-67
2022/06/09 11:58:33;;;;;;;5.35;0.95;;;18.50;99.90;;;;;;5041056;28;20131;-67
2022/06/09 12:01:08;;;;;;;2.92;0.90;;;18.70;99.90;;;;;;5035381;28;20511;-67
2022/06/09 12:03:41;;;;;;;2.75;0.80;;;18.80;99.90;;;;;;5045534;28;20528;-67
2022/06/09 12:06:17;;;;;;;2.88;0.80;;;18.70;99.90;;;;;;5043974;28;20508;-67
2022/06/09 12:08:45;;;;;;;2.47;0.90;;;18.70;99.90;;;;;;5051508;28;20412;-67
2022/06/09 12:11:17;;;;;;;4.55;1.08;;;18.80;99.90;;;;;;5031343;28;20048;-67
2022/06/09 12:14:18;;;;;;;4.32;1.40;;;18.90;99.90;;;;;;5028166;28;20082;-66
2022/06/09 12:16:56;;;;;;;7.10;1.10;;;19.00;99.90;;;;;;4992423;28;20076;-67
2022/06/09 12:19:29;;;;;;;2.55;0.75;;;18.80;99.90;;;;;;5037657;28;20037;-67
2022/06/09 12:21:59;;;;;;;4.63;1.35;;;18.70;99.90;;;;;;5038059;28;20054;-67
2022/06/09 12:24:56;;;;;;;3.00;0.65;;;18.70;99.90;;;;;;5021222;28;20041;-67
2022/06/09 12:27:48;;;;;;;5.88;1.10;;;18.80;99.90;;;;;;5029124;28;20041;-67
2022/06/09 12:30:33;;;;;;;1.98;0.70;;;18.80;99.90;;;;;;5040568;28;20068;-67
2022/06/09 12:33:11;;;;;;;4.03;0.95;;;18.70;99.90;;;;;;5038121;28;20412;-67
2022/06/09 12:35:46;;;;;;;2.83;0.93;;;18.80;99.90;;;;;;5053922;28;20041;-67
2022/06/09 12:38:21;;;;;;;6.25;0.98;;;19.00;99.90;;;;;;5030970;28;20512;-67
2022/06/09 12:40:51;;;;;;;3.72;1.30;;;19.00;99.90;;;;;;5046189;28;20315;-67
2022/06/09 12:43:29;;;;;;;3.55;0.93;;;18.90;99.90;;;;;;5048528;28;20091;-67
2022/06/09 12:46:00;;;;;;;4.22;1.02;;;18.80;99.90;;;;;;5010331;28;20045;-66
2022/06/09 12:48:33;;;;;;;5.30;1.05;;;18.80;99.90;;;;;;5033825;28;20186;-67
2022/06/09 12:51:00;;;;;;;4.07;1.25;;;19.00;99.90;;;;;;5037938;28;20040;-68
2022/06/09 12:53:41;;;;;;;2.72;1.10;;;18.90;99.90;;;;;;5036736;28;20452;-67
2022/06/09 12:56:36;;;;;;;3.20;1.20;;;18.90;99.90;;;;;;5019461;28;20167;-67
2022/06/09 12:59:16;;;;;;;5.35;1.23;;;18.80;99.90;;;;;;5046475;28;20190;-67
2022/06/09 13:01:51;;;;;;;3.40;0.80;;;19.00;99.90;;;;;;5042619;28;20033;-67
2022/06/09 13:04:18;;;;;;;4.28;0.77;;;19.10;99.90;;;;;;5040231;28;20070;-67
2022/06/09 13:06:48;;;;;;;3.92;1.00;;;19.20;99.90;;;;;;5046644;28;20037;-67
2022/06/09 13:09:18;;;;;;;7.03;1.27;;;19.30;99.90;;;;;;5047992;28;20103;-67
2022/06/09 13:14:33;;;;;;;4.30;0.88;;;19.40;99.90;;;;;;5043581;28;20049;-68
2022/06/09 13:17:06;;;;;;;5.00;0.98;;;19.20;99.90;;;;;;5038469;28;20095;-67
2022/06/09 13:19:34;;;;;;;4.55;0.98;;;19.10;99.90;;;;;;5043705;28;20040;-67
2022/06/09 13:22:05;;;;;;;3.17;1.20;;;19.00;99.90;;;;;;5014286;28;20055;-67
2022/06/09 13:24:37;;;;;;;2.95;1.00;;;19.20;99.90;;;;;;5007503;28;20066;-67
2022/06/09 13:27:10;;;;;;;2.83;1.08;;;19.30;99.90;;;;;;5036368;28;20409;-67
2022/06/09 13:29:39;;;;;;;3.33;0.90;;;19.40;99.90;;;;;;5032680;28;20464;-67
2022/06/09 13:32:11;;;;;;;4.22;0.90;;;19.60;99.90;;;;;;5040133;28;20040;-67
2022/06/09 13:34:43;;;;;;;5.55;0.88;;;19.60;99.90;;;;;;5018786;28;20405;-67
2022/06/09 13:37:35;;;;;;;1.92;0.50;;;19.40;99.90;;;;;;5025070;28;20045;-67